Abbot Village, Maine
Current Conditions -  °F | °C
As of 2:53 AM on Sunday 23 Nov 2014 (Local Time) from KBGR Reporting Station
Broken Clouds Broken Clouds  
Wind Chill: 32°   Ceiling: 5000
Heat Index: 37°   Visibility: 10mi
Dew Point: 19°   Wind: 6mph
Humidity: 48%   Direction: 200°SSW
Pressure: 29.92"   Gusts: NA
Location:  45.19°N, 69.45°W
Report Text: KBGR 230753Z 20005KT 10SM BKN050 03/M07 A2992 RMK AO2 SLP135 T00281072
Loading
Personal Weather Stations






























Interactive Weather Map New forecast layout! Learn more

10-Day Weather Forecast

Advertisements
Track Severe Weather on mobile